sensor_id;sensor_type;location;lat;lon;timestamp;temperature;humidity
18446;DHT22;9352;50.888;4.466;2022-12-15T00:00:14;-2.80;99.90
18446;DHT22;9352;50.888;4.466;2022-12-15T00:03:04;-2.80;99.90
18446;DHT22;9352;50.888;4.466;2022-12-15T00:05:48;-2.80;99.90
18446;DHT22;9352;50.888;4.466;2022-12-15T00:08:32;-2.90;99.90
18446;DHT22;9352;50.888;4.466;2022-12-15T00:11:17;-2.90;99.90
18446;DHT22;9352;50.888;4.466;2022-12-15T00:14:01;-3.00;99.90
18446;DHT22;9352;50.888;4.466;2022-12-15T00:16:46;-3.00;99.90
18446;DHT22;9352;50.888;4.466;2022-12-15T00:19:31;-3.10;99.90
18446;DHT22;9352;50.888;4.466;2022-12-15T00:22:15;-3.10;99.90
18446;DHT22;9352;50.888;4.466;2022-12-15T00:24:59;-3.10;99.90
18446;DHT22;9352;50.888;4.466;2022-12-15T00:27:43;-3.10;99.90
18446;DHT22;9352;50.888;4.466;2022-12-15T00:30:28;-3.10;99.90
18446;DHT22;9352;50.888;4.466;2022-12-15T00:33:13;-3.20;99.90
18446;DHT22;9352;50.888;4.466;2022-12-15T00:36:01;-3.20;99.90
18446;DHT22;9352;50.888;4.466;2022-12-15T00:38:45;-3.20;99.90
18446;DHT22;9352;50.888;4.466;2022-12-15T00:41:14;-3.20;99.90
18446;DHT22;9352;50.888;4.466;2022-12-15T00:43:42;-3.20;99.90
18446;DHT22;9352;50.888;4.466;2022-12-15T00:46:09;-3.20;99.90
18446;DHT22;9352;50.888;4.466;2022-12-15T00:48:55;-3.30;99.90
18446;DHT22;9352;50.888;4.466;2022-12-15T00:51:21;-3.30;99.90
18446;DHT22;9352;50.888;4.466;2022-12-15T00:54:06;-3.30;99.90
18446;DHT22;9352;50.888;4.466;2022-12-15T00:56:50;-3.30;99.90
18446;DHT22;9352;50.888;4.466;2022-12-15T00:59:34;-3.30;99.90
18446;DHT22;9352;50.888;4.466;2022-12-15T01:02:18;-3.30;99.90
18446;DHT22;9352;50.888;4.466;2022-12-15T01:05:05;-3.30;99.90
18446;DHT22;9352;50.888;4.466;2022-12-15T01:07:49;-3.30;99.90
18446;DHT22;9352;50.888;4.466;2022-12-15T01:10:33;-3.30;99.90
18446;DHT22;9352;50.888;4.466;2022-12-15T01:13:18;-3.30;99.90
18446;DHT22;9352;50.888;4.466;2022-12-15T01:16:07;-3.30;99.90
18446;DHT22;9352;50.888;4.466;2022-12-15T01:18:52;-3.20;99.90
18446;DHT22;9352;50.888;4.466;2022-12-15T01:21:37;-3.20;99.90
18446;DHT22;9352;50.888;4.466;2022-12-15T01:24:05;-3.20;99.90
18446;DHT22;9352;50.888;4.466;2022-12-15T01:26:32;-3.30;99.90
18446;DHT22;9352;50.888;4.466;2022-12-15T01:28:58;-3.30;99.90
18446;DHT22;9352;50.888;4.466;2022-12-15T01:31:25;-3.30;99.90
18446;DHT22;9352;50.888;4.466;2022-12-15T01:33:52;-3.40;99.90
18446;DHT22;9352;50.888;4.466;2022-12-15T01:36:19;-3.30;99.90
18446;DHT22;9352;50.888;4.466;2022-12-15T01:38:48;-3.30;99.90
18446;DHT22;9352;50.888;4.466;2022-12-15T01:41:15;-3.40;99.90
18446;DHT22;9352;50.888;4.466;2022-12-15T01:43:41;-3.50;99.90
18446;DHT22;9352;50.888;4.466;2022-12-15T01:46:09;-3.50;99.90
18446;DHT22;9352;50.888;4.466;2022-12-15T01:48:42;-3.60;99.90
18446;DHT22;9352;50.888;4.466;2022-12-15T01:51:17;-3.60;99.90
18446;DHT22;9352;50.888;4.466;2022-12-15T01:53:51;-3.50;99.90
18446;DHT22;9352;50.888;4.466;2022-12-15T01:56:19;-3.50;99.90
18446;DHT22;9352;50.888;4.466;2022-12-15T01:58:48;-3.50;99.90
18446;DHT22;9352;50.888;4.466;2022-12-15T02:01:17;-3.50;99.90
18446;DHT22;9352;50.888;4.466;2022-12-15T02:03:44;-3.50;99.90
18446;DHT22;9352;50.888;4.466;2022-12-15T02:06:12;-3.50;99.90
18446;DHT22;9352;50.888;4.466;2022-12-15T02:08:42;-3.50;99.90
18446;DHT22;9352;50.888;4.466;2022-12-15T02:14:03;-3.50;99.90
18446;DHT22;9352;50.888;4.466;2022-12-15T02:16:42;-3.50;99.90
18446;DHT22;9352;50.888;4.466;2022-12-15T02:19:46;-3.50;99.90
18446;DHT22;9352;50.888;4.466;2022-12-15T02:22:24;-3.50;99.90
18446;DHT22;9352;50.888;4.466;2022-12-15T02:27:50;-3.50;99.90
18446;DHT22;9352;50.888;4.466;2022-12-15T02:30:25;-3.60;99.90
18446;DHT22;9352;50.888;4.466;2022-12-15T02:33:03;-3.60;99.90
18446;DHT22;9352;50.888;4.466;2022-12-15T02:35:40;-3.60;99.90
18446;DHT22;9352;50.888;4.466;2022-12-15T02:38:10;-3.60;99.90
18446;DHT22;9352;50.888;4.466;2022-12-15T02:40:38;-3.60;99.90
18446;DHT22;9352;50.888;4.466;2022-12-15T02:43:05;-3.70;99.90
18446;DHT22;9352;50.888;4.466;2022-12-15T02:45:39;-3.70;99.90
18446;DHT22;9352;50.888;4.466;2022-12-15T02:48:20;-3.80;99.90
18446;DHT22;9352;50.888;4.466;2022-12-15T02:51:00;-3.80;99.90
18446;DHT22;9352;50.888;4.466;2022-12-15T02:53:55;-3.80;99.90
18446;DHT22;9352;50.888;4.466;2022-12-15T02:56:27;-3.90;99.90
18446;DHT22;9352;50.888;4.466;2022-12-15T02:59:02;-3.90;99.90
18446;DHT22;9352;50.888;4.466;2022-12-15T03:01:35;-3.90;99.90
18446;DHT22;9352;50.888;4.466;2022-12-15T03:04:05;-3.90;99.90
18446;DHT22;9352;50.888;4.466;2022-12-15T03:06:33;-3.80;99.90
18446;DHT22;9352;50.888;4.466;2022-12-15T03:09:00;-3.80;99.90
18446;DHT22;9352;50.888;4.466;2022-12-15T03:11:27;-3.80;99.90
18446;DHT22;9352;50.888;4.466;2022-12-15T03:13:54;-3.80;99.90
18446;DHT22;9352;50.888;4.466;2022-12-15T03:16:21;-3.80;99.90
18446;DHT22;9352;50.888;4.466;2022-12-15T03:18:50;-3.80;99.90
18446;DHT22;9352;50.888;4.466;2022-12-15T03:21:17;-3.80;99.90
18446;DHT22;9352;50.888;4.466;2022-12-15T03:23:44;-3.80;99.90
18446;DHT22;9352;50.888;4.466;2022-12-15T03:26:11;-3.80;99.90
18446;DHT22;9352;50.888;4.466;2022-12-15T03:28:38;-3.70;99.90
18446;DHT22;9352;50.888;4.466;2022-12-15T03:31:05;-3.70;99.90
18446;DHT22;9352;50.888;4.466;2022-12-15T03:33:32;-3.70;99.90
18446;DHT22;9352;50.888;4.466;2022-12-15T03:36:00;-3.70;99.90
18446;DHT22;9352;50.888;4.466;2022-12-15T03:38:27;-3.70;99.90
18446;DHT22;9352;50.888;4.466;2022-12-15T03:40:54;-3.60;99.90
18446;DHT22;9352;50.888;4.466;2022-12-15T03:43:21;-3.60;99.90
18446;DHT22;9352;50.888;4.466;2022-12-15T03:45:48;-3.70;99.90
18446;DHT22;9352;50.888;4.466;2022-12-15T03:48:15;-3.80;99.90
18446;DHT22;9352;50.888;4.466;2022-12-15T03:50:41;-3.80;99.90
18446;DHT22;9352;50.888;4.466;2022-12-15T03:53:10;-3.80;99.90
18446;DHT22;9352;50.888;4.466;2022-12-15T03:55:37;-3.80;99.90
18446;DHT22;9352;50.888;4.466;2022-12-15T03:58:04;-3.80;99.90
18446;DHT22;9352;50.888;4.466;2022-12-15T04:00:31;-3.80;99.90
18446;DHT22;9352;50.888;4.466;2022-12-15T04:02:58;-3.90;99.90
18446;DHT22;9352;50.888;4.466;2022-12-15T04:05:26;-3.90;99.90
18446;DHT22;9352;50.888;4.466;2022-12-15T04:07:55;-3.90;99.90
18446;DHT22;9352;50.888;4.466;2022-12-15T04:10:27;-3.90;99.90
18446;DHT22;9352;50.888;4.466;2022-12-15T04:12:56;-3.90;99.90
18446;DHT22;9352;50.888;4.466;2022-12-15T04:15:23;-3.90;99.90
18446;DHT22;9352;50.888;4.466;2022-12-15T04:17:50;-3.80;99.90
18446;DHT22;9352;50.888;4.466;2022-12-15T04:20:17;-3.80;99.90
18446;DHT22;9352;50.888;4.466;2022-12-15T04:22:45;-3.80;99.90
18446;DHT22;9352;50.888;4.466;2022-12-15T04:25:14;-3.80;99.90
18446;DHT22;9352;50.888;4.466;2022-12-15T04:28:01;-3.80;99.90
18446;DHT22;9352;50.888;4.466;2022-12-15T04:30:48;-3.90;99.90
18446;DHT22;9352;50.888;4.466;2022-12-15T04:33:35;-3.80;99.90
18446;DHT22;9352;50.888;4.466;2022-12-15T04:36:21;-3.90;99.90
18446;DHT22;9352;50.888;4.466;2022-12-15T04:39:05;-3.90;99.90
18446;DHT22;9352;50.888;4.466;2022-12-15T04:41:50;-3.90;99.90
18446;DHT22;9352;50.888;4.466;2022-12-15T04:44:36;-3.90;99.90
18446;DHT22;9352;50.888;4.466;2022-12-15T04:47:21;-3.90;99.90
18446;DHT22;9352;50.888;4.466;2022-12-15T04:50:06;-3.90;99.90
18446;DHT22;9352;50.888;4.466;2022-12-15T04:52:50;-3.90;99.90
18446;DHT22;9352;50.888;4.466;2022-12-15T04:55:35;-3.90;99.90
18446;DHT22;9352;50.888;4.466;2022-12-15T04:58:20;-3.90;99.90
18446;DHT22;9352;50.888;4.466;2022-12-15T05:01:06;-3.90;99.90
18446;DHT22;9352;50.888;4.466;2022-12-15T05:03:50;-3.90;99.90
18446;DHT22;9352;50.888;4.466;2022-12-15T05:06:34;-3.90;99.90
18446;DHT22;9352;50.888;4.466;2022-12-15T05:09:19;-3.90;99.90
18446;DHT22;9352;50.888;4.466;2022-12-15T05:12:04;-3.90;99.90
18446;DHT22;9352;50.888;4.466;2022-12-15T05:14:48;-3.90;99.90
18446;DHT22;9352;50.888;4.466;2022-12-15T05:17:34;-3.80;99.90
18446;DHT22;9352;50.888;4.466;2022-12-15T05:20:18;-3.80;99.90
18446;DHT22;9352;50.888;4.466;2022-12-15T05:23:03;-3.80;99.90
18446;DHT22;9352;50.888;4.466;2022-12-15T05:25:47;-3.80;99.90
18446;DHT22;9352;50.888;4.466;2022-12-15T05:28:31;-3.80;99.90
18446;DHT22;9352;50.888;4.466;2022-12-15T05:31:16;-3.80;99.90
18446;DHT22;9352;50.888;4.466;2022-12-15T05:34:01;-3.70;99.90
18446;DHT22;9352;50.888;4.466;2022-12-15T05:36:29;-3.70;99.90
18446;DHT22;9352;50.888;4.466;2022-12-15T05:38:55;-3.70;99.90
18446;DHT22;9352;50.888;4.466;2022-12-15T05:41:22;-3.70;99.90
18446;DHT22;9352;50.888;4.466;2022-12-15T05:43:49;-3.70;99.90
18446;DHT22;9352;50.888;4.466;2022-12-15T05:46:16;-3.70;99.90
18446;DHT22;9352;50.888;4.466;2022-12-15T05:48:44;-3.60;99.90
18446;DHT22;9352;50.888;4.466;2022-12-15T05:51:13;-3.60;99.90
18446;DHT22;9352;50.888;4.466;2022-12-15T05:53:41;-3.60;99.90
18446;DHT22;9352;50.888;4.466;2022-12-15T05:56:10;-3.60;99.90
18446;DHT22;9352;50.888;4.466;2022-12-15T05:58:38;-3.60;99.90
18446;DHT22;9352;50.888;4.466;2022-12-15T06:01:07;-3.60;99.90
18446;DHT22;9352;50.888;4.466;2022-12-15T06:03:35;-3.50;99.90
18446;DHT22;9352;50.888;4.466;2022-12-15T06:06:02;-3.50;99.90
18446;DHT22;9352;50.888;4.466;2022-12-15T06:08:33;-3.50;99.90
18446;DHT22;9352;50.888;4.466;2022-12-15T06:11:00;-3.40;99.90
18446;DHT22;9352;50.888;4.466;2022-12-15T06:13:29;-3.40;99.90
18446;DHT22;9352;50.888;4.466;2022-12-15T06:15:58;-2.50;99.90
18446;DHT22;9352;50.888;4.466;2022-12-15T06:18:29;-2.20;99.90
18446;DHT22;9352;50.888;4.466;2022-12-15T06:20:57;-2.50;99.90
18446;DHT22;9352;50.888;4.466;2022-12-15T06:23:25;-2.70;99.90
18446;DHT22;9352;50.888;4.466;2022-12-15T06:25:54;-2.90;99.90
18446;DHT22;9352;50.888;4.466;2022-12-15T06:28:21;-3.00;99.90
18446;DHT22;9352;50.888;4.466;2022-12-15T06:30:50;-3.10;99.90
18446;DHT22;9352;50.888;4.466;2022-12-15T06:33:18;-3.20;99.90
18446;DHT22;9352;50.888;4.466;2022-12-15T06:35:46;-3.20;99.90
18446;DHT22;9352;50.888;4.466;2022-12-15T06:38:13;-3.20;99.90
18446;DHT22;9352;50.888;4.466;2022-12-15T06:40:40;-3.30;99.90
18446;DHT22;9352;50.888;4.466;2022-12-15T06:43:08;-3.40;99.90
18446;DHT22;9352;50.888;4.466;2022-12-15T06:45:35;-3.40;99.90
18446;DHT22;9352;50.888;4.466;2022-12-15T06:48:02;-3.40;99.90
18446;DHT22;9352;50.888;4.466;2022-12-15T06:50:29;-3.40;99.90
18446;DHT22;9352;50.888;4.466;2022-12-15T06:52:57;-3.40;99.90
18446;DHT22;9352;50.888;4.466;2022-12-15T06:55:24;-3.40;99.90
18446;DHT22;9352;50.888;4.466;2022-12-15T06:57:51;-3.50;99.90
18446;DHT22;9352;50.888;4.466;2022-12-15T07:00:20;-3.50;99.90
18446;DHT22;9352;50.888;4.466;2022-12-15T07:02:47;-3.50;99.90
18446;DHT22;9352;50.888;4.466;2022-12-15T07:05:14;-3.50;99.90
18446;DHT22;9352;50.888;4.466;2022-12-15T07:07:40;-3.50;99.90
18446;DHT22;9352;50.888;4.466;2022-12-15T07:10:08;-3.50;99.90
18446;DHT22;9352;50.888;4.466;2022-12-15T07:12:36;-3.50;99.90
18446;DHT22;9352;50.888;4.466;2022-12-15T07:15:04;-3.50;99.90
18446;DHT22;9352;50.888;4.466;2022-12-15T07:17:34;-3.50;99.90
18446;DHT22;9352;50.888;4.466;2022-12-15T07:20:01;-3.50;99.90
18446;DHT22;9352;50.888;4.466;2022-12-15T07:22:28;-3.50;99.90
18446;DHT22;9352;50.888;4.466;2022-12-15T07:24:55;-3.50;99.90
18446;DHT22;9352;50.888;4.466;2022-12-15T07:27:22;-3.50;99.90
18446;DHT22;9352;50.888;4.466;2022-12-15T07:29:49;-3.40;99.90
18446;DHT22;9352;50.888;4.466;2022-12-15T07:32:16;-3.40;99.90
18446;DHT22;9352;50.888;4.466;2022-12-15T07:34:45;-3.40;99.90
18446;DHT22;9352;50.888;4.466;2022-12-15T07:37:12;-3.40;99.90
18446;DHT22;9352;50.888;4.466;2022-12-15T07:39:38;-3.40;99.90
18446;DHT22;9352;50.888;4.466;2022-12-15T07:42:05;-3.40;99.90
18446;DHT22;9352;50.888;4.466;2022-12-15T07:44:32;-3.40;99.90
18446;DHT22;9352;50.888;4.466;2022-12-15T07:46:59;-3.40;99.90
18446;DHT22;9352;50.888;4.466;2022-12-15T07:49:26;-3.50;99.90
18446;DHT22;9352;50.888;4.466;2022-12-15T07:51:54;-3.50;99.90
18446;DHT22;9352;50.888;4.466;2022-12-15T07:54:23;-3.50;99.90
18446;DHT22;9352;50.888;4.466;2022-12-15T07:56:50;-3.50;99.90
18446;DHT22;9352;50.888;4.466;2022-12-15T07:59:16;-3.50;99.90
18446;DHT22;9352;50.888;4.466;2022-12-15T08:01:44;-3.40;99.90
18446;DHT22;9352;50.888;4.466;2022-12-15T08:04:11;-3.40;99.90
18446;DHT22;9352;50.888;4.466;2022-12-15T08:06:37;-3.40;99.90
18446;DHT22;9352;50.888;4.466;2022-12-15T08:09:06;-3.40;99.90
18446;DHT22;9352;50.888;4.466;2022-12-15T08:11:33;-3.40;99.90
18446;DHT22;9352;50.888;4.466;2022-12-15T08:14:00;-3.40;99.90
18446;DHT22;9352;50.888;4.466;2022-12-15T08:16:28;-3.40;99.90
18446;DHT22;9352;50.888;4.466;2022-12-15T08:18:55;-3.40;99.90
18446;DHT22;9352;50.888;4.466;2022-12-15T08:21:22;-3.40;99.90
18446;DHT22;9352;50.888;4.466;2022-12-15T08:23:49;-3.40;99.90
18446;DHT22;9352;50.888;4.466;2022-12-15T08:26:18;-3.40;99.90
18446;DHT22;9352;50.888;4.466;2022-12-15T08:28:45;-3.40;99.90
18446;DHT22;9352;50.888;4.466;2022-12-15T08:31:15;-3.40;99.90
18446;DHT22;9352;50.888;4.466;2022-12-15T08:33:43;-3.30;99.90
18446;DHT22;9352;50.888;4.466;2022-12-15T08:36:11;-3.30;99.90
18446;DHT22;9352;50.888;4.466;2022-12-15T08:38:39;-3.20;99.90
18446;DHT22;9352;50.888;4.466;2022-12-15T08:41:08;-3.20;99.90
18446;DHT22;9352;50.888;4.466;2022-12-15T08:43:37;-3.20;99.90
18446;DHT22;9352;50.888;4.466;2022-12-15T08:46:04;-3.10;99.90
18446;DHT22;9352;50.888;4.466;2022-12-15T08:48:32;-3.10;99.90
18446;DHT22;9352;50.888;4.466;2022-12-15T08:51:00;-3.00;99.90
18446;DHT22;9352;50.888;4.466;2022-12-15T08:53:27;-3.00;99.90
18446;DHT22;9352;50.888;4.466;2022-12-15T08:55:54;-3.00;99.90
18446;DHT22;9352;50.888;4.466;2022-12-15T08:58:21;-2.90;99.90
18446;DHT22;9352;50.888;4.466;2022-12-15T09:00:49;-2.90;99.90
18446;DHT22;9352;50.888;4.466;2022-12-15T09:03:16;-2.80;99.90
18446;DHT22;9352;50.888;4.466;2022-12-15T09:05:43;-2.80;99.90
18446;DHT22;9352;50.888;4.466;2022-12-15T09:08:10;-2.70;99.90
18446;DHT22;9352;50.888;4.466;2022-12-15T09:10:39;-2.60;99.90
18446;DHT22;9352;50.888;4.466;2022-12-15T09:13:07;-2.60;99.90
18446;DHT22;9352;50.888;4.466;2022-12-15T09:15:34;-2.50;99.90
18446;DHT22;9352;50.888;4.466;2022-12-15T09:18:02;-2.30;99.90
18446;DHT22;9352;50.888;4.466;2022-12-15T09:20:29;-2.20;99.90
18446;DHT22;9352;50.888;4.466;2022-12-15T09:22:56;-2.10;99.90
18446;DHT22;9352;50.888;4.466;2022-12-15T09:25:23;-2.10;99.90
18446;DHT22;9352;50.888;4.466;2022-12-15T09:27:50;-2.10;99.90
18446;DHT22;9352;50.888;4.466;2022-12-15T09:30:17;-2.10;99.90
18446;DHT22;9352;50.888;4.466;2022-12-15T09:32:44;-2.00;99.90
18446;DHT22;9352;50.888;4.466;2022-12-15T09:35:13;-1.90;99.90
18446;DHT22;9352;50.888;4.466;2022-12-15T09:37:41;-1.80;99.90
18446;DHT22;9352;50.888;4.466;2022-12-15T09:40:11;-1.80;99.90
18446;DHT22;9352;50.888;4.466;2022-12-15T09:42:38;-1.70;99.90
18446;DHT22;9352;50.888;4.466;2022-12-15T09:45:11;-1.70;99.90
18446;DHT22;9352;50.888;4.466;2022-12-15T09:47:42;-1.60;99.90
18446;DHT22;9352;50.888;4.466;2022-12-15T09:50:14;-1.60;99.90
18446;DHT22;9352;50.888;4.466;2022-12-15T09:52:46;-1.50;99.90
18446;DHT22;9352;50.888;4.466;2022-12-15T09:55:19;-1.40;99.90
18446;DHT22;9352;50.888;4.466;2022-12-15T09:57:50;-1.30;99.90
18446;DHT22;9352;50.888;4.466;2022-12-15T10:00:19;-1.20;99.90
18446;DHT22;9352;50.888;4.466;2022-12-15T10:03:16;-1.10;99.90
18446;DHT22;9352;50.888;4.466;2022-12-15T10:06:04;-1.00;99.90
18446;DHT22;9352;50.888;4.466;2022-12-15T10:08:33;-0.90;99.90
18446;DHT22;9352;50.888;4.466;2022-12-15T10:11:03;-0.80;99.90
18446;DHT22;9352;50.888;4.466;2022-12-15T10:13:37;-0.80;99.90
18446;DHT22;9352;50.888;4.466;2022-12-15T10:16:16;-0.70;99.90
18446;DHT22;9352;50.888;4.466;2022-12-15T10:18:53;-0.60;99.90
18446;DHT22;9352;50.888;4.466;2022-12-15T10:21:26;-0.50;99.90
18446;DHT22;9352;50.888;4.466;2022-12-15T10:23:56;-0.40;99.90
18446;DHT22;9352;50.888;4.466;2022-12-15T10:26:27;-0.40;99.90
18446;DHT22;9352;50.888;4.466;2022-12-15T10:29:15;-0.30;99.90
18446;DHT22;9352;50.888;4.466;2022-12-15T10:31:49;-0.10;99.90
18446;DHT22;9352;50.888;4.466;2022-12-15T10:34:24;-0.10;99.90
18446;DHT22;9352;50.888;4.466;2022-12-15T10:36:53;0.00;99.90
18446;DHT22;9352;50.888;4.466;2022-12-15T10:39:22;0.20;99.90
18446;DHT22;9352;50.888;4.466;2022-12-15T10:42:12;0.40;99.90
18446;DHT22;9352;50.888;4.466;2022-12-15T10:44:41;0.80;99.90
18446;DHT22;9352;50.888;4.466;2022-12-15T10:47:10;1.20;99.90
18446;DHT22;9352;50.888;4.466;2022-12-15T10:49:38;1.50;99.90
18446;DHT22;9352;50.888;4.466;2022-12-15T10:52:15;1.80;99.90
18446;DHT22;9352;50.888;4.466;2022-12-15T10:54:46;2.20;99.90
18446;DHT22;9352;50.888;4.466;2022-12-15T10:57:16;2.50;99.90
18446;DHT22;9352;50.888;4.466;2022-12-15T10:59:43;2.70;99.90
18446;DHT22;9352;50.888;4.466;2022-12-15T11:02:33;2.70;99.90
18446;DHT22;9352;50.888;4.466;2022-12-15T11:05:04;2.70;99.90
18446;DHT22;9352;50.888;4.466;2022-12-15T11:07:36;2.50;99.90
18446;DHT22;9352;50.888;4.466;2022-12-15T11:10:15;2.40;99.90
18446;DHT22;9352;50.888;4.466;2022-12-15T11:12:52;2.40;99.90
18446;DHT22;9352;50.888;4.466;2022-12-15T11:15:46;2.30;99.90
18446;DHT22;9352;50.888;4.466;2022-12-15T11:18:33;2.20;99.90
18446;DHT22;9352;50.888;4.466;2022-12-15T11:21:07;2.10;99.90
18446;DHT22;9352;50.888;4.466;2022-12-15T11:23:48;2.10;99.90
18446;DHT22;9352;50.888;4.466;2022-12-15T11:26:24;2.10;99.90
18446;DHT22;9352;50.888;4.466;2022-12-15T11:28:55;2.10;99.90
18446;DHT22;9352;50.888;4.466;2022-12-15T11:31:26;2.10;99.90
18446;DHT22;9352;50.888;4.466;2022-12-15T11:33:56;2.10;99.90
18446;DHT22;9352;50.888;4.466;2022-12-15T11:36:37;2.10;99.90
18446;DHT22;9352;50.888;4.466;2022-12-15T11:39:17;2.10;99.90
18446;DHT22;9352;50.888;4.466;2022-12-15T11:41:52;2.10;99.90
18446;DHT22;9352;50.888;4.466;2022-12-15T11:44:24;2.10;99.90
18446;DHT22;9352;50.888;4.466;2022-12-15T11:47:03;2.00;99.90
18446;DHT22;9352;50.888;4.466;2022-12-15T11:52:50;2.10;99.90
18446;DHT22;9352;50.888;4.466;2022-12-15T11:55:25;2.10;99.90
18446;DHT22;9352;50.888;4.466;2022-12-15T11:58:07;2.30;99.90
18446;DHT22;9352;50.888;4.466;2022-12-15T12:00:42;2.30;99.90
18446;DHT22;9352;50.888;4.466;2022-12-15T12:03:24;2.30;99.90
18446;DHT22;9352;50.888;4.466;2022-12-15T12:06:02;2.30;99.90
18446;DHT22;9352;50.888;4.466;2022-12-15T12:08:46;2.40;99.90
18446;DHT22;9352;50.888;4.466;2022-12-15T12:11:20;2.40;99.90
18446;DHT22;9352;50.888;4.466;2022-12-15T12:14:02;2.30;99.90
18446;DHT22;9352;50.888;4.466;2022-12-15T12:16:39;2.40;99.90
18446;DHT22;9352;50.888;4.466;2022-12-15T12:19:12;2.40;99.90
18446;DHT22;9352;50.888;4.466;2022-12-15T12:21:44;2.40;99.90
18446;DHT22;9352;50.888;4.466;2022-12-15T12:24:15;2.40;99.90
18446;DHT22;9352;50.888;4.466;2022-12-15T12:26:51;2.40;99.90
18446;DHT22;9352;50.888;4.466;2022-12-15T12:29:24;2.40;99.90
18446;DHT22;9352;50.888;4.466;2022-12-15T12:31:57;2.50;99.90
18446;DHT22;9352;50.888;4.466;2022-12-15T12:34:27;2.60;99.90
18446;DHT22;9352;50.888;4.466;2022-12-15T12:37:03;2.60;99.90
18446;DHT22;9352;50.888;4.466;2022-12-15T12:39:35;2.70;99.90
18446;DHT22;9352;50.888;4.466;2022-12-15T12:42:09;2.70;99.90
18446;DHT22;9352;50.888;4.466;2022-12-15T12:44:40;2.70;99.90
18446;DHT22;9352;50.888;4.466;2022-12-15T12:47:12;2.70;99.90
18446;DHT22;9352;50.888;4.466;2022-12-15T12:49:43;2.80;99.90
18446;DHT22;9352;50.888;4.466;2022-12-15T12:52:19;2.80;99.90
18446;DHT22;9352;50.888;4.466;2022-12-15T12:54:58;2.80;99.90
18446;DHT22;9352;50.888;4.466;2022-12-15T12:57:38;2.90;99.90
18446;DHT22;9352;50.888;4.466;2022-12-15T13:00:19;2.90;99.90
18446;DHT22;9352;50.888;4.466;2022-12-15T13:05:44;2.90;99.90
18446;DHT22;9352;50.888;4.466;2022-12-15T13:14:51;2.90;99.90
18446;DHT22;9352;50.888;4.466;2022-12-15T13:17:28;3.00;99.90
18446;DHT22;9352;50.888;4.466;2022-12-15T13:20:22;2.90;99.90
18446;DHT22;9352;50.888;4.466;2022-12-15T13:22:50;2.90;99.90
18446;DHT22;9352;50.888;4.466;2022-12-15T13:25:41;2.90;99.90
18446;DHT22;9352;50.888;4.466;2022-12-15T13:28:24;2.90;99.90
18446;DHT22;9352;50.888;4.466;2022-12-15T13:31:18;2.90;99.90
18446;DHT22;9352;50.888;4.466;2022-12-15T13:33:51;2.90;99.90
18446;DHT22;9352;50.888;4.466;2022-12-15T13:36:49;2.90;99.90
18446;DHT22;9352;50.888;4.466;2022-12-15T13:39:51;2.90;99.90
18446;DHT22;9352;50.888;4.466;2022-12-15T13:42:43;2.90;99.90
18446;DHT22;9352;50.888;4.466;2022-12-15T13:45:32;2.90;99.90
18446;DHT22;9352;50.888;4.466;2022-12-15T13:50:51;2.90;99.90
18446;DHT22;9352;50.888;4.466;2022-12-15T13:53:22;2.90;99.90
18446;DHT22;9352;50.888;4.466;2022-12-15T13:56:11;2.90;99.90
18446;DHT22;9352;50.888;4.466;2022-12-15T13:58:42;2.90;99.90
18446;DHT22;9352;50.888;4.466;2022-12-15T14:01:19;2.90;99.90
18446;DHT22;9352;50.888;4.466;2022-12-15T14:04:13;2.90;99.90
18446;DHT22;9352;50.888;4.466;2022-12-15T14:06:45;2.80;99.90
18446;DHT22;9352;50.888;4.466;2022-12-15T14:09:15;2.80;99.90
18446;DHT22;9352;50.888;4.466;2022-12-15T14:11:46;2.80;99.90
18446;DHT22;9352;50.888;4.466;2022-12-15T14:14:18;2.80;99.90
18446;DHT22;9352;50.888;4.466;2022-12-15T14:16:46;2.80;99.90
18446;DHT22;9352;50.888;4.466;2022-12-15T14:19:18;2.80;99.90
18446;DHT22;9352;50.888;4.466;2022-12-15T14:21:50;2.70;99.90
18446;DHT22;9352;50.888;4.466;2022-12-15T14:24:26;2.70;99.90
18446;DHT22;9352;50.888;4.466;2022-12-15T14:26:54;2.70;99.90
18446;DHT22;9352;50.888;4.466;2022-12-15T14:29:21;2.60;99.90
18446;DHT22;9352;50.888;4.466;2022-12-15T14:31:54;2.60;99.90
18446;DHT22;9352;50.888;4.466;2022-12-15T14:34:29;2.60;99.90
18446;DHT22;9352;50.888;4.466;2022-12-15T14:36:59;2.60;99.90
18446;DHT22;9352;50.888;4.466;2022-12-15T14:39:31;2.50;99.90
18446;DHT22;9352;50.888;4.466;2022-12-15T14:41:59;2.50;99.90
18446;DHT22;9352;50.888;4.466;2022-12-15T14:44:30;2.40;99.90
18446;DHT22;9352;50.888;4.466;2022-12-15T14:46:59;2.30;99.90
18446;DHT22;9352;50.888;4.466;2022-12-15T14:49:30;2.30;99.90
18446;DHT22;9352;50.888;4.466;2022-12-15T14:52:00;2.20;99.90
18446;DHT22;9352;50.888;4.466;2022-12-15T14:54:32;2.20;99.90
18446;DHT22;9352;50.888;4.466;2022-12-15T14:57:02;2.20;99.90
18446;DHT22;9352;50.888;4.466;2022-12-15T14:59:31;2.20;99.90
18446;DHT22;9352;50.888;4.466;2022-12-15T15:02:05;2.10;99.90
18446;DHT22;9352;50.888;4.466;2022-12-15T15:04:39;2.00;99.90
18446;DHT22;9352;50.888;4.466;2022-12-15T15:07:15;2.00;99.90
18446;DHT22;9352;50.888;4.466;2022-12-15T15:09:43;1.90;99.90
18446;DHT22;9352;50.888;4.466;2022-12-15T15:12:14;1.90;99.90
18446;DHT22;9352;50.888;4.466;2022-12-15T15:14:44;1.80;99.90
18446;DHT22;9352;50.888;4.466;2022-12-15T15:17:24;1.80;99.90
18446;DHT22;9352;50.888;4.466;2022-12-15T15:19:56;1.70;99.90
18446;DHT22;9352;50.888;4.466;2022-12-15T15:22:36;1.70;99.90
18446;DHT22;9352;50.888;4.466;2022-12-15T15:25:26;1.60;99.90
18446;DHT22;9352;50.888;4.466;2022-12-15T15:28:02;1.60;99.90
18446;DHT22;9352;50.888;4.466;2022-12-15T15:30:38;1.50;99.90
18446;DHT22;9352;50.888;4.466;2022-12-15T15:33:07;1.50;99.90
18446;DHT22;9352;50.888;4.466;2022-12-15T15:35:35;1.40;99.90
18446;DHT22;9352;50.888;4.466;2022-12-15T15:38:05;1.30;99.90
18446;DHT22;9352;50.888;4.466;2022-12-15T15:40:32;1.20;99.90
18446;DHT22;9352;50.888;4.466;2022-12-15T15:43:00;1.10;99.90
18446;DHT22;9352;50.888;4.466;2022-12-15T15:45:27;1.10;99.90
18446;DHT22;9352;50.888;4.466;2022-12-15T15:47:56;1.10;99.90
18446;DHT22;9352;50.888;4.466;2022-12-15T15:50:27;1.00;99.90
18446;DHT22;9352;50.888;4.466;2022-12-15T15:52:56;1.00;99.90
18446;DHT22;9352;50.888;4.466;2022-12-15T15:55:26;0.90;99.90
18446;DHT22;9352;50.888;4.466;2022-12-15T15:57:54;0.90;99.90
18446;DHT22;9352;50.888;4.466;2022-12-15T16:00:22;0.80;99.90
18446;DHT22;9352;50.888;4.466;2022-12-15T16:02:50;0.80;99.90
18446;DHT22;9352;50.888;4.466;2022-12-15T16:05:17;0.70;99.90
18446;DHT22;9352;50.888;4.466;2022-12-15T16:07:45;0.70;99.90
18446;DHT22;9352;50.888;4.466;2022-12-15T16:10:16;0.60;99.90
18446;DHT22;9352;50.888;4.466;2022-12-15T16:12:46;0.60;99.90
18446;DHT22;9352;50.888;4.466;2022-12-15T16:15:16;0.50;99.90
18446;DHT22;9352;50.888;4.466;2022-12-15T16:17:44;0.50;99.90
18446;DHT22;9352;50.888;4.466;2022-12-15T16:20:12;0.50;99.90
18446;DHT22;9352;50.888;4.466;2022-12-15T16:22:41;0.50;99.90
18446;DHT22;9352;50.888;4.466;2022-12-15T16:25:15;0.50;99.90
18446;DHT22;9352;50.888;4.466;2022-12-15T16:27:43;0.40;99.90
18446;DHT22;9352;50.888;4.466;2022-12-15T16:30:18;0.40;99.90
18446;DHT22;9352;50.888;4.466;2022-12-15T16:32:45;0.40;99.90
18446;DHT22;9352;50.888;4.466;2022-12-15T16:35:12;0.40;99.90
18446;DHT22;9352;50.888;4.466;2022-12-15T16:37:41;0.40;99.90
18446;DHT22;9352;50.888;4.466;2022-12-15T16:40:22;0.70;99.90
18446;DHT22;9352;50.888;4.466;2022-12-15T16:42:54;0.60;99.90
18446;DHT22;9352;50.888;4.466;2022-12-15T16:45:22;0.50;99.90
18446;DHT22;9352;50.888;4.466;2022-12-15T16:47:49;0.50;99.90
18446;DHT22;9352;50.888;4.466;2022-12-15T16:50:18;0.40;99.90